Stardust — WDG8792 — position and weather

sailwx.info

Track history (hours):
 
Tides and Currents Weather Stations Pressure Air Temp Water Temp Dewpoint Dewpoint Depression Visibility Wind Speed Wind Dir Waves Ship Positions

Stardust

Owner: Harley Marine Services, Inc, Seattle, WA. More information available from US FCC via Universal Licensing System and Coast Guard Vessel Documentation Center.

Last reported at 2018-Jun-20 16:30 UTC. Time now 2018-Jun-20 16:51 UTC.
Position N 29°22' W 094°53'.

Length 23 m; draft 2 m.

Type: Tug. MMSI: 367581120.

Date/timePositionNaut miles runAvg speedWind from/ knotsBaromVisibWave heightAir tempDewpointWater temp
2018-Jun-20 16:30N 29°22' W 094°53'0 0.0
2018-Jun-20 15:59N 29°22' W 094°53'0 0.0
2018-Jun-20 15:30N 29°22' W 094°53'0 0.0
2018-Jun-20 14:59N 29°22' W 094°53'0 0.0
2018-Jun-20 14:30N 29°22' W 094°53'1 2.2
2018-Jun-20 13:58N 29°23' W 094°53'1 1.4
2018-Jun-20 13:30N 29°23' W 094°52'0 0.0
2018-Jun-20 12:59N 29°23' W 094°52'0 0.0
2018-Jun-20 12:30N 29°23' W 094°52'0 0.0
2018-Jun-20 11:58N 29°23' W 094°52'13 1.3
2018-Jun-20 01:45N 29°35' W 094°56'2 6.9
2018-Jun-20 01:29N 29°37' W 094°57'4 6.9
2018-Jun-20 00:54N 29°41' W 094°59'2 0.0
2018-Jun-17 22:58N 29°42' W 095°01'1 3.0
2018-Jun-17 22:30N 29°41' W 095°00'0 0.0
2018-Jun-17 17:03N 29°41' W 095°01'0 0.0
2018-Jun-17 17:00N 29°41' W 095°01'0 0.0
2018-Jun-17 16:30N 29°41' W 095°01'0 0.3
2018-Jun-17 15:16N 29°41' W 095°00'0 0.0
2018-Jun-17 14:56N 29°41' W 095°00'0 0.0
2018-Jun-17 14:02N 29°41' W 095°00'0 0.0
2018-Jun-17 13:59N 29°41' W 095°00'1 0.1
2018-Jun-16 23:49N 29°42' W 094°60'2 6.8
2018-Jun-16 23:28N 29°40' W 094°58'15 7.3
2018-Jun-16 21:25N 29°27' W 094°50'3 7.6
2018-Jun-16 21:00N 29°24' W 094°49'4 7.6
2018-Jun-16 20:30N 29°20' W 094°47'2 3.2
2018-Jun-16 19:57N 29°19' W 094°47'0 0.7
2018-Jun-16 19:17N 29°19' W 094°48'0 0.0
2018-Jun-16 18:59N 29°19' W 094°48'0 0.0
2018-Jun-16 18:30N 29°19' W 094°48'0 0.0
2018-Jun-16 17:59N 29°19' W 094°48'0 0.0
2018-Jun-16 17:22N 29°19' W 094°48'0 0.0
2018-Jun-16 17:00N 29°19' W 094°48'0 0.0
2018-Jun-16 16:30N 29°19' W 094°48'0 0.0
2018-Jun-16 13:57N 29°19' W 094°48'0 0.0
2018-Jun-16 13:18N 29°19' W 094°48'0 1.3
2018-Jun-16 13:00N 29°19' W 094°48'0 0.8
2018-Jun-16 12:30N 29°19' W 094°49'0 0.0
2018-Jun-16 12:00N 29°19' W 094°49'1 0.3
2018-Jun-16 09:04N 29°19' W 094°48'0 0.8
2018-Jun-16 09:00N 29°19' W 094°48'2 4.2
2018-Jun-16 08:28N 29°20' W 094°46'3 5.5
2018-Jun-16 07:59N 29°21' W 094°43'0 0.1
2018-Jun-16 07:08N 29°21' W 094°43'0 0.0
2018-Jun-16 00:34N 29°21' W 094°43'0 0.1
2018-Jun-16 00:26N 29°21' W 094°43'0 0.1
2018-Jun-15 23:58N 29°21' W 094°43'0 0.1
2018-Jun-15 23:30N 29°21' W 094°43'0 0.1
2018-Jun-15 22:47N 29°21' W 094°43'3 3.5
2018-Jun-15 21:55N 29°21' W 094°47'2 5.0
2018-Jun-15 21:28N 29°21' W 094°49'0 0.1
2018-Jun-15 21:00N 29°21' W 094°49'0 0.0
2018-Jun-15 20:30N 29°21' W 094°49'0 0.0
2018-Jun-15 19:57N 29°21' W 094°49'0 0.0
2018-Jun-15 19:30N 29°21' W 094°49'0 0.0
2018-Jun-15 18:56N 29°21' W 094°49'0 0.1
2018-Jun-15 18:29N 29°21' W 094°49'1 3.0
2018-Jun-15 18:00N 29°21' W 094°48'1 2.2
2018-Jun-15 17:30N 29°21' W 094°47'0 0.0
2018-Jun-15 17:00N 29°21' W 094°47'0 0.0
2018-Jun-15 16:30N 29°21' W 094°47'0 0.0
2018-Jun-15 16:00N 29°21' W 094°47'0 0.0
2018-Jun-15 14:57N 29°21' W 094°47'0 0.0
2018-Jun-15 14:30N 29°21' W 094°47'0 0.0
2018-Jun-15 13:59N 29°21' W 094°47'0 0.0
2018-Jun-15 13:30N 29°21' W 094°47'0 0.0
2018-Jun-15 13:00N 29°21' W 094°47'0 0.0
2018-Jun-15 12:30N 29°21' W 094°47'0 0.0
2018-Jun-15 12:00N 29°21' W 094°47'0 0.0
2018-Jun-15 11:30N 29°21' W 094°47'0 0.0
2018-Jun-15 11:00N 29°21' W 094°47'0 0.0
2018-Jun-15 10:30N 29°21' W 094°47'0 0.0
2018-Jun-15 09:59N 29°21' W 094°47'0 0.1
2018-Jun-15 09:30N 29°21' W 094°47'0 0.1
2018-Jun-15 08:48N 29°21' W 094°46'0 0.3
2018-Jun-15 08:30N 29°21' W 094°46'2 4.5
2018-Jun-15 08:00N 29°22' W 094°48'14 7.1
2018-Jun-15 06:05N 29°34' W 094°56'1 6.7
2018-Jun-15 06:00N 29°35' W 094°56'4 7.2
2018-Jun-15 05:30N 29°38' W 094°58'10 0.2
2018-Jun-13 04:46N 29°46' W 095°06'1 4.8
2018-Jun-13 04:28N 29°45' W 095°04'4 5.7
2018-Jun-13 03:48N 29°42' W 095°01'2 6.3
2018-Jun-13 03:29N 29°41' W 094°59'3 6.4
2018-Jun-13 03:00N 29°38' W 094°58'3 6.6
2018-Jun-13 02:29N 29°35' W 094°56'4 6.9
2018-Jun-13 01:50N 29°32' W 094°53'7 6.1
2018-Jun-13 00:38N 29°25' W 094°50'1 5.8
2018-Jun-13 00:24N 29°24' W 094°49'3 5.2
2018-Jun-12 23:52N 29°21' W 094°47'3 0.4
2018-Jun-12 16:21N 29°21' W 094°44'3 3.6
2018-Jun-12 15:27N 29°21' W 094°47'2 3.4
2018-Jun-12 15:00N 29°21' W 094°49'0 0.0
2018-Jun-12 14:30N 29°21' W 094°49'0 0.0
2018-Jun-12 14:00N 29°21' W 094°49'0 0.0
2018-Jun-12 13:30N 29°21' W 094°49'0 0.0
2018-Jun-12 13:00N 29°21' W 094°49'1 1.8
2018-Jun-12 12:29N 29°22' W 094°49'3 5.0
2018-Jun-12 11:47N 29°22' W 094°53'1 5.3
2018-Jun-12 11:30N 29°22' W 094°55'0 0.2
2018-Jun-12 11:00N 29°22' W 094°55'5 0.6
2018-Jun-12 02:32N 29°21' W 094°49'0 0.8
2018-Jun-12 02:29N 29°21' W 094°49'0 0.7
2018-Jun-12 02:00N 29°21' W 094°49'0 0.0
2018-Jun-12 01:30N 29°21' W 094°49'0 0.0
2018-Jun-12 00:56N 29°21' W 094°49'0 0.0
2018-Jun-12 00:27N 29°21' W 094°49'0 0.0
2018-Jun-11 23:54N 29°21' W 094°49'0 0.0
2018-Jun-11 23:30N 29°21' W 094°49'0 0.0
2018-Jun-11 23:00N 29°21' W 094°49'0 0.0
2018-Jun-11 22:30N 29°21' W 094°49'0 0.0
2018-Jun-11 22:00N 29°21' W 094°49'0 0.0
2018-Jun-11 21:30N 29°21' W 094°49'0 0.0
2018-Jun-11 21:00N 29°21' W 094°49'0 0.0
2018-Jun-11 20:30N 29°21' W 094°49'0 0.0
2018-Jun-11 20:00N 29°21' W 094°49'0 0.0
2018-Jun-11 19:30N 29°21' W 094°49'0 0.0
2018-Jun-11 18:59N 29°21' W 094°49'0 0.0
2018-Jun-11 18:30N 29°21' W 094°49'0 0.0
2018-Jun-11 18:00N 29°21' W 094°49'0 0.1
2018-Jun-11 17:30N 29°21' W 094°49'1 2.6
2018-Jun-11 17:00N 29°21' W 094°48'2 4.7
2018-Jun-11 16:30N 29°19' W 094°47'0 0.8
2018-Jun-11 16:00N 29°19' W 094°48'0 0.0
2018-Jun-11 15:29N 29°19' W 094°48'0 0.0
2018-Jun-11 15:00N 29°19' W 094°48'0 0.0
2018-Jun-11 14:30N 29°19' W 094°48'0 0.0
2018-Jun-11 14:00N 29°19' W 094°48'0 0.0
2018-Jun-11 13:30N 29°19' W 094°48'0 0.3
2018-Jun-11 13:00N 29°19' W 094°48'0 0.0
2018-Jun-11 12:30N 29°19' W 094°48'0 0.0
2018-Jun-11 12:00N 29°19' W 094°48'0 0.0
2018-Jun-11 11:30N 29°19' W 094°48'0 0.0
2018-Jun-11 11:00N 29°19' W 094°48'0 0.0
2018-Jun-11 10:29N 29°19' W 094°48'0 0.0
2018-Jun-11 10:00N 29°19' W 094°48'0 0.0
2018-Jun-11 09:30N 29°19' W 094°48'0 0.0
2018-Jun-11 09:00N 29°19' W 094°48'0 0.0
2018-Jun-11 08:29N 29°19' W 094°48'0 0.0
2018-Jun-11 08:00N 29°19' W 094°48'0 0.0
2018-Jun-11 07:30N 29°19' W 094°48'0 0.0
2018-Jun-11 07:00N 29°19' W 094°48'0 0.0
2018-Jun-11 06:25N 29°19' W 094°48'0 0.0
2018-Jun-11 06:00N 29°19' W 094°48'0 0.0
2018-Jun-11 05:30N 29°19' W 094°48'0 0.0
2018-Jun-11 04:59N 29°19' W 094°48'0 0.0
2018-Jun-11 04:30N 29°19' W 094°48'0 0.0
2018-Jun-11 03:59N 29°19' W 094°48'0 0.0
2018-Jun-11 03:30N 29°19' W 094°48'0 0.1
2018-Jun-11 03:00N 29°19' W 094°48'1 0.3
2018-Jun-11 00:52N 29°19' W 094°47'0 0.0
2018-Jun-11 00:26N 29°19' W 094°47'0 0.0
2018-Jun-10 22:56N 29°19' W 094°47'0 0.0
2018-Jun-10 22:29N 29°19' W 094°47'0 0.0
2018-Jun-10 22:00N 29°19' W 094°47'0 0.0
2018-Jun-10 21:30N 29°19' W 094°47'0 0.0
2018-Jun-10 20:51N 29°19' W 094°47'0 0.0
2018-Jun-10 20:26N 29°19' W 094°47'0 0.0
2018-Jun-10 19:59N 29°19' W 094°47'0 0.1
2018-Jun-10 19:26N 29°19' W 094°47'0 0.3
2018-Jun-10 18:50N 29°19' W 094°47'  
Track history (hours):
 
Tides and Currents Weather Stations Pressure Air Temp Water Temp Dewpoint Dewpoint Depression Visibility Wind Speed Wind Dir Waves Ship Positions

Stardust

Owner: Harley Marine Services, Inc, Seattle, WA. More information available from US FCC via Universal Licensing System and Coast Guard Vessel Documentation Center.

Last reported at 2018-Jun-20 16:30 UTC. Time now 2018-Jun-20 16:51 UTC.
Position N 29°22' W 094°53'.

Length 23 m; draft 2 m.

Type: Tug. MMSI: 367581120.

Date/timePositionNaut miles runAvg speedWind from/ knotsBaromVisibWave heightAir tempDewpointWater temp
2018-Jun-20 16:30N 29°22' W 094°53'0 0.0
2018-Jun-20 15:59N 29°22' W 094°53'0 0.0
2018-Jun-20 15:30N 29°22' W 094°53'0 0.0
2018-Jun-20 14:59N 29°22' W 094°53'0 0.0
2018-Jun-20 14:30N 29°22' W 094°53'1 2.2
2018-Jun-20 13:58N 29°23' W 094°53'1 1.4
2018-Jun-20 13:30N 29°23' W 094°52'0 0.0
2018-Jun-20 12:59N 29°23' W 094°52'0 0.0
2018-Jun-20 12:30N 29°23' W 094°52'0 0.0
2018-Jun-20 11:58N 29°23' W 094°52'13 1.3
2018-Jun-20 01:45N 29°35' W 094°56'2 6.9
2018-Jun-20 01:29N 29°37' W 094°57'4 6.9
2018-Jun-20 00:54N 29°41' W 094°59'2 0.0
2018-Jun-17 22:58N 29°42' W 095°01'1 3.0
2018-Jun-17 22:30N 29°41' W 095°00'0 0.0
2018-Jun-17 17:03N 29°41' W 095°01'0 0.0
2018-Jun-17 17:00N 29°41' W 095°01'0 0.0
2018-Jun-17 16:30N 29°41' W 095°01'0 0.3
2018-Jun-17 15:16N 29°41' W 095°00'0 0.0
2018-Jun-17 14:56N 29°41' W 095°00'0 0.0
2018-Jun-17 14:02N 29°41' W 095°00'0 0.0
2018-Jun-17 13:59N 29°41' W 095°00'1 0.1
2018-Jun-16 23:49N 29°42' W 094°60'2 6.8
2018-Jun-16 23:28N 29°40' W 094°58'15 7.3
2018-Jun-16 21:25N 29°27' W 094°50'3 7.6
2018-Jun-16 21:00N 29°24' W 094°49'4 7.6
2018-Jun-16 20:30N 29°20' W 094°47'2 3.2
2018-Jun-16 19:57N 29°19' W 094°47'0 0.7
2018-Jun-16 19:17N 29°19' W 094°48'0 0.0
2018-Jun-16 18:59N 29°19' W 094°48'0 0.0
2018-Jun-16 18:30N 29°19' W 094°48'0 0.0
2018-Jun-16 17:59N 29°19' W 094°48'0 0.0
2018-Jun-16 17:22N 29°19' W 094°48'0 0.0
2018-Jun-16 17:00N 29°19' W 094°48'0 0.0
2018-Jun-16 16:30N 29°19' W 094°48'0 0.0
2018-Jun-16 13:57N 29°19' W 094°48'0 0.0
2018-Jun-16 13:18N 29°19' W 094°48'0 1.3
2018-Jun-16 13:00N 29°19' W 094°48'0 0.8
2018-Jun-16 12:30N 29°19' W 094°49'0 0.0
2018-Jun-16 12:00N 29°19' W 094°49'1 0.3
2018-Jun-16 09:04N 29°19' W 094°48'0 0.8
2018-Jun-16 09:00N 29°19' W 094°48'2 4.2
2018-Jun-16 08:28N 29°20' W 094°46'3 5.5
2018-Jun-16 07:59N 29°21' W 094°43'0 0.1
2018-Jun-16 07:08N 29°21' W 094°43'0 0.0
2018-Jun-16 00:34N 29°21' W 094°43'0 0.1
2018-Jun-16 00:26N 29°21' W 094°43'0 0.1
2018-Jun-15 23:58N 29°21' W 094°43'0 0.1
2018-Jun-15 23:30N 29°21' W 094°43'0 0.1
2018-Jun-15 22:47N 29°21' W 094°43'3 3.5
2018-Jun-15 21:55N 29°21' W 094°47'2 5.0
2018-Jun-15 21:28N 29°21' W 094°49'0 0.1
2018-Jun-15 21:00N 29°21' W 094°49'0 0.0
2018-Jun-15 20:30N 29°21' W 094°49'0 0.0
2018-Jun-15 19:57N 29°21' W 094°49'0 0.0
2018-Jun-15 19:30N 29°21' W 094°49'0 0.0
2018-Jun-15 18:56N 29°21' W 094°49'0 0.1
2018-Jun-15 18:29N 29°21' W 094°49'1 3.0
2018-Jun-15 18:00N 29°21' W 094°48'1 2.2
2018-Jun-15 17:30N 29°21' W 094°47'0 0.0
2018-Jun-15 17:00N 29°21' W 094°47'0 0.0
2018-Jun-15 16:30N 29°21' W 094°47'0 0.0
2018-Jun-15 16:00N 29°21' W 094°47'0 0.0
2018-Jun-15 14:57N 29°21' W 094°47'0 0.0
2018-Jun-15 14:30N 29°21' W 094°47'0 0.0
2018-Jun-15 13:59N 29°21' W 094°47'0 0.0
2018-Jun-15 13:30N 29°21' W 094°47'0 0.0
2018-Jun-15 13:00N 29°21' W 094°47'0 0.0
2018-Jun-15 12:30N 29°21' W 094°47'0 0.0
2018-Jun-15 12:00N 29°21' W 094°47'0 0.0
2018-Jun-15 11:30N 29°21' W 094°47'0 0.0
2018-Jun-15 11:00N 29°21' W 094°47'0 0.0
2018-Jun-15 10:30N 29°21' W 094°47'0 0.0
2018-Jun-15 09:59N 29°21' W 094°47'0 0.1
2018-Jun-15 09:30N 29°21' W 094°47'0 0.1
2018-Jun-15 08:48N 29°21' W 094°46'0 0.3
2018-Jun-15 08:30N 29°21' W 094°46'2 4.5
2018-Jun-15 08:00N 29°22' W 094°48'14 7.1
2018-Jun-15 06:05N 29°34' W 094°56'1 6.7
2018-Jun-15 06:00N 29°35' W 094°56'4 7.2
2018-Jun-15 05:30N 29°38' W 094°58'10 0.2
2018-Jun-13 04:46N 29°46' W 095°06'1 4.8
2018-Jun-13 04:28N 29°45' W 095°04'4 5.7
2018-Jun-13 03:48N 29°42' W 095°01'2 6.3
2018-Jun-13 03:29N 29°41' W 094°59'3 6.4
2018-Jun-13 03:00N 29°38' W 094°58'3 6.6
2018-Jun-13 02:29N 29°35' W 094°56'4 6.9
2018-Jun-13 01:50N 29°32' W 094°53'7 6.1
2018-Jun-13 00:38N 29°25' W 094°50'1 5.8
2018-Jun-13 00:24N 29°24' W 094°49'3 5.2
2018-Jun-12 23:52N 29°21' W 094°47'3 0.4
2018-Jun-12 16:21N 29°21' W 094°44'3 3.6
2018-Jun-12 15:27N 29°21' W 094°47'2 3.4
2018-Jun-12 15:00N 29°21' W 094°49'0 0.0
2018-Jun-12 14:30N 29°21' W 094°49'0 0.0
2018-Jun-12 14:00N 29°21' W 094°49'0 0.0
2018-Jun-12 13:30N 29°21' W 094°49'0 0.0
2018-Jun-12 13:00N 29°21' W 094°49'1 1.8
2018-Jun-12 12:29N 29°22' W 094°49'3 5.0
2018-Jun-12 11:47N 29°22' W 094°53'1 5.3
2018-Jun-12 11:30N 29°22' W 094°55'0 0.2
2018-Jun-12 11:00N 29°22' W 094°55'5 0.6
2018-Jun-12 02:32N 29°21' W 094°49'0 0.8
2018-Jun-12 02:29N 29°21' W 094°49'0 0.7
2018-Jun-12 02:00N 29°21' W 094°49'0 0.0
2018-Jun-12 01:30N 29°21' W 094°49'0 0.0
2018-Jun-12 00:56N 29°21' W 094°49'0 0.0
2018-Jun-12 00:27N 29°21' W 094°49'0 0.0
2018-Jun-11 23:54N 29°21' W 094°49'0 0.0
2018-Jun-11 23:30N 29°21' W 094°49'0 0.0
2018-Jun-11 23:00N 29°21' W 094°49'0 0.0
2018-Jun-11 22:30N 29°21' W 094°49'0 0.0
2018-Jun-11 22:00N 29°21' W 094°49'0 0.0
2018-Jun-11 21:30N 29°21' W 094°49'0 0.0
2018-Jun-11 21:00N 29°21' W 094°49'0 0.0
2018-Jun-11 20:30N 29°21' W 094°49'0 0.0
2018-Jun-11 20:00N 29°21' W 094°49'0 0.0
2018-Jun-11 19:30N 29°21' W 094°49'0 0.0
2018-Jun-11 18:59N 29°21' W 094°49'0 0.0
2018-Jun-11 18:30N 29°21' W 094°49'0 0.0
2018-Jun-11 18:00N 29°21' W 094°49'0 0.1
2018-Jun-11 17:30N 29°21' W 094°49'1 2.6
2018-Jun-11 17:00N 29°21' W 094°48'2 4.7
2018-Jun-11 16:30N 29°19' W 094°47'0 0.8
2018-Jun-11 16:00N 29°19' W 094°48'0 0.0
2018-Jun-11 15:29N 29°19' W 094°48'0 0.0
2018-Jun-11 15:00N 29°19' W 094°48'0 0.0
2018-Jun-11 14:30N 29°19' W 094°48'0 0.0
2018-Jun-11 14:00N 29°19' W 094°48'0 0.0
2018-Jun-11 13:30N 29°19' W 094°48'0 0.3
2018-Jun-11 13:00N 29°19' W 094°48'0 0.0
2018-Jun-11 12:30N 29°19' W 094°48'0 0.0
2018-Jun-11 12:00N 29°19' W 094°48'0 0.0
2018-Jun-11 11:30N 29°19' W 094°48'0 0.0
2018-Jun-11 11:00N 29°19' W 094°48'0 0.0
2018-Jun-11 10:29N 29°19' W 094°48'0 0.0
2018-Jun-11 10:00N 29°19' W 094°48'0 0.0
2018-Jun-11 09:30N 29°19' W 094°48'0 0.0
2018-Jun-11 09:00N 29°19' W 094°48'0 0.0
2018-Jun-11 08:29N 29°19' W 094°48'0 0.0
2018-Jun-11 08:00N 29°19' W 094°48'0 0.0
2018-Jun-11 07:30N 29°19' W 094°48'0 0.0
2018-Jun-11 07:00N 29°19' W 094°48'0 0.0
2018-Jun-11 06:25N 29°19' W 094°48'0 0.0
2018-Jun-11 06:00N 29°19' W 094°48'0 0.0
2018-Jun-11 05:30N 29°19' W 094°48'0 0.0
2018-Jun-11 04:59N 29°19' W 094°48'0 0.0
2018-Jun-11 04:30N 29°19' W 094°48'0 0.0
2018-Jun-11 03:59N 29°19' W 094°48'0 0.0
2018-Jun-11 03:30N 29°19' W 094°48'0 0.1
2018-Jun-11 03:00N 29°19' W 094°48'1 0.3
2018-Jun-11 00:52N 29°19' W 094°47'0 0.0
2018-Jun-11 00:26N 29°19' W 094°47'0 0.0
2018-Jun-10 22:56N 29°19' W 094°47'0 0.0
2018-Jun-10 22:29N 29°19' W 094°47'0 0.0
2018-Jun-10 22:00N 29°19' W 094°47'0 0.0
2018-Jun-10 21:30N 29°19' W 094°47'0 0.0
2018-Jun-10 20:51N 29°19' W 094°47'0 0.0
2018-Jun-10 20:26N 29°19' W 094°47'0 0.0
2018-Jun-10 19:59N 29°19' W 094°47'0 0.1
2018-Jun-10 19:26N 29°19' W 094°47'0 0.3
2018-Jun-10 18:50N 29°19' W 094°47'  

Dump ship's entire track history